Latest Weather Observations for Roma

IDQ60801

Issued at 9:35 pm EST Wednesday 1 October 2014 (issued every 30 minutes, with the page automatically refreshed every 10 minutes)

About weather observations | Map of weather stations | Latest weather observations for QLD | Other Formats
Station Details ID: 043091 Name: ROMA AIRPORT Lat: -26.55 Lon: 148.77 Height: 307.38 m
Data from the previous 72 hours. | See also: Recent months at Roma
Date/Time
EST
Temp
°C
App
Temp
°C
Dew
Point
Rel
Hum
%
Delta-T
°C
Wind Press
QNH
hPa
Press
MSL
hPa
Rain
since 9 am
mm
Dir
 
Spd
km/h
Gust
km/h
Spd
kts
Gust
kts
01/09:30pm 21.2 16.4 2.5 29 8.9 S 17 24 9 13 1018.8 1017.6 0.0
01/09:00pm 22.0 16.7 3.2 29 9.1 S 20 28 11 15 1018.5 1017.3 0.0
01/08:30pm 22.8 17.2 3.4 28 9.5 S 22 28 12 15 1018.2 1017.0 0.0
01/08:00pm 23.9 18.4 3.8 27 10.0 S 22 28 12 15 1017.9 1016.6 0.0
01/07:30pm 25.0 19.5 4.2 26 10.5 S 22 32 12 17 1017.4 1016.1 0.0
01/07:00pm 25.5 20.5 3.5 24 11.0 S 19 22 10 12 1016.9 1015.7 0.0
01/06:30pm 26.7 21.4 3.2 22 11.8 S 20 26 11 14 1016.4 1015.2 0.0
01/06:00pm 27.3 22.2 3.1 21 12.1 S 19 24 10 13 1016.1 1014.9 0.0
01/05:30pm 29.1 22.6 2.4 18 13.4 SSW 26 33 14 18 1015.8 1014.6 0.0
01/05:00pm 30.2 23.5 1.6 16 14.2 SSW 26 35 14 19 1015.5 1014.3 0.0
01/04:30pm 31.4 25.5 1.7 15 14.9 SSW 22 37 12 20 1015.2 1014.0 0.0
01/04:00pm 31.9 25.7 2.1 15 15.1 S 24 33 13 18 1015.2 1014.0 0.0
01/03:30pm 32.3 26.0 1.4 14 15.6 SSW 24 30 13 16 1015.2 1014.0 0.0
01/03:00pm 32.8 26.2 1.8 14 15.8 SSW 26 33 14 18 1015.1 1013.8 0.0
01/02:30pm 32.6 27.3 1.7 14 15.7 S 19 22 10 12 1015.4 1014.2 0.0
01/02:00pm 32.7 27.2 1.7 14 15.7 SW 20 33 11 18 1015.7 1014.5 0.0
01/01:30pm 32.5 27.7 2.5 15 15.4 SSW 17 33 9 18 1016.1 1014.9 0.0
01/01:00pm 32.6 27.8 2.6 15 15.4 SSW 17 33 9 18 1016.4 1015.2 0.0
01/12:30pm 32.4 26.5 1.5 14 15.6 SW 22 35 12 19 1016.6 1015.4 0.0
01/12:00pm 32.1 25.9 2.2 15 15.2 S 24 32 13 17 1017.2 1015.9 0.0
01/11:30am 31.5 25.8 2.7 16 14.7 SSW 22 52 12 28 1017.6 1016.3 0.0
01/11:00am 31.4 25.7 2.6 16 14.7 SSW 22 33 12 18 1018.0 1016.8 0.0
01/10:30am 30.9 25.0 3.8 18 14.1 S 24 39 13 21 1018.2 1017.0 0.0
01/10:00am 29.6 24.0 5.6 22 12.7 S 24 35 13 19 1018.5 1017.3 0.0
01/09:30am 28.3 23.4 7.0 26 11.5 W 22 32 12 17 1018.9 1018.1 0.0
01/09:00am 26.4 21.6 7.4 30 10.2 WNW 22 28 12 15 1019.1 1018.3 0.0
01/08:30am 24.4 19.5 7.1 33 9.2 WNW 22 28 12 15 1019.2 1018.4 0.0
01/08:00am 23.0 19.1 7.1 36 8.3 W 17 20 9 11 1019.3 1018.5 0.0
01/07:30am 21.6 18.8 8.5 43 7.0 WNW 13 15 7 8 1019.3 1018.5 0.0
01/07:00am 19.9 17.5 8.6 48 6.0 N 11 15 6 8 1018.7 1017.9 0.0
01/06:30am 17.3 15.8 9.0 58 4.4 N 7 9 4 5 1018.5 1017.7 0.0
01/06:00am 16.1 13.8 7.6 57 4.3 W 9 13 5 7 1018.3 1017.5 0.0
01/05:30am 17.1 13.3 7.7 54 4.8 N 17 19 9 10 1017.4 1016.6 0.0
01/05:00am 17.9 14.1 7.6 51 5.3 N 17 20 9 11 1016.8 1016.1 0.0
01/04:30am 18.0 14.2 7.7 51 5.3 N 17 22 9 12 1016.3 1015.5 0.0
01/04:00am 17.8 14.1 7.8 52 5.2 N 17 20 9 11 1016.2 1015.4 0.0
01/03:30am 17.3 14.2 7.1 51 5.2 N 13 17 7 9 1016.3 1015.5 0.0
01/03:00am 17.0 13.9 7.1 52 5.0 N 13 15 7 8 1016.4 1015.6 0.0
01/02:30am 17.5 13.6 7.0 50 5.3 N 17 20 9 11 1016.5 1015.7 0.0
01/02:00am 17.6 13.7 7.1 50 5.3 N 17 19 9 10 1016.7 1016.0 0.0
01/01:30am 17.8 14.3 7.2 50 5.4 N 15 17 8 9 1017.2 1016.4 0.0
01/01:00am 17.9 14.4 7.3 50 5.4 N 15 17 8 9 1017.5 1016.7 0.0
01/12:30am 18.6 15.0 6.8 46 6.0 N 15 19 8 10 1017.6 1016.8 0.0
01/12:00am 18.5 15.2 6.4 45 6.1 N 13 15 7 8 1017.7 1016.9 0.0
 
Date/Time
EST
Temp
°C
App
Temp
°C
Dew
Point
Rel
Hum
%
Delta-T
°C
Wind Press
QNH
hPa
Press
MSL
hPa
Rain
since 9 am
mm
Dir
 
Spd
km/h
Gust
km/h
Spd
kts
Gust
kts
30/11:30pm 19.1 15.7 5.9 42 6.6 N 13 15 7 8 1017.6 1016.8 0.0
30/11:00pm 20.8 16.7 6.0 38 7.5 N 17 19 9 10 1017.6 1016.8 0.0
30/10:30pm 21.5 17.6 5.4 35 8.1 N 15 19 8 10 1017.7 1016.9 0.0
30/10:00pm 21.3 16.9 4.8 34 8.2 N 17 20 9 11 1017.6 1016.8 0.0
30/09:30pm 21.5 17.1 4.6 33 8.4 N 17 20 9 11 1017.8 1017.0 0.0
30/09:00pm 22.7 18.6 4.2 30 9.2 N 15 20 8 11 1017.7 1016.9 0.0
30/08:30pm 23.7 19.2 4.1 28 9.8 NNE 17 20 9 11 1017.6 1016.8 0.0
30/08:00pm 24.1 19.6 4.0 27 10.0 NNE 17 24 9 13 1017.4 1016.6 0.0
30/07:30pm 22.8 19.9 4.8 31 9.1 NNE 9 11 5 6 1017.2 1016.4 0.0
30/07:00pm 23.8 20.5 4.7 29 9.6 NE 11 13 6 7 1016.9 1016.2 0.0
30/06:30pm 24.6 21.1 5.4 29 9.9 NE 13 15 7 8 1016.4 1015.6 0.0
30/06:00pm 28.0 25.2 5.0 23 12.0 NE 9 11 5 6 1015.9 1015.1 0.0
30/05:30pm 30.2 28.7 4.8 20 13.4 NNE 2 9 1 5 1015.8 1015.0 0.0
30/05:00pm 30.9 28.2 3.8 18 14.1 N 7 13 4 7 1015.7 1014.9 0.0
30/04:30pm 31.6 29.1 3.6 17 14.6 NW 6 11 3 6 1015.6 1014.8 0.0
30/04:00pm 31.9 28.8 3.8 17 14.7 E 9 17 5 9 1015.5 1014.7 0.0
30/03:30pm 31.5 28.9 4.3 18 14.3 NE 7 17 4 9 1015.6 1014.8 0.0
30/03:00pm 31.3 27.7 4.9 19 14.0 ENE 13 20 7 11 1015.7 1014.9 0.0
30/02:30pm 31.3 28.8 6.4 21 13.5 NNE 9 19 5 10 1016.0 1015.2 0.0
30/02:00pm 31.1 28.0 5.5 20 13.7 N 11 19 6 10 1016.4 1015.6 0.0
30/01:30pm 31.1 27.0 6.2 21 13.5 ENE 17 28 9 15 1016.8 1016.1 0.0
30/01:00pm 31.0 27.8 6.8 22 13.2 N 13 24 7 13 1017.4 1016.6 0.0
30/12:30pm 31.2 27.7 8.8 25 12.7 N 17 28 9 15 1017.8 1017.0 0.0
30/12:00pm 30.4 27.5 8.2 25 12.4 N 13 24 7 13 1018.5 1017.7 0.0
30/11:30am 30.5 27.0 8.8 26 12.2 N 17 24 9 13 1018.9 1018.1 0.0
30/11:00am 28.9 25.4 8.6 28 11.3 N 17 26 9 14 1019.5 1018.8 0.0
30/10:30am 28.4 24.6 9.2 30 10.8 N 19 26 10 14 1019.9 1019.2 0.0
30/10:00am 27.4 23.9 10.2 34 9.7 N 19 24 10 13 1020.2 1019.5 0.0
30/09:30am 26.7 23.6 11.6 39 8.7 N 19 28 10 15 1020.3 1019.6 0.0
30/09:00am 25.0 20.8 11.2 42 7.9 N 24 30 13 16 1020.4 1019.7 0.0
30/08:30am 23.3 19.2 11.4 47 6.8 N 24 33 13 18 1020.4 1019.7 0.0
30/08:00am 21.9 17.8 11.6 52 5.8 N 24 32 13 17 1020.2 1019.5 0.0
30/07:30am 19.5 15.1 10.5 56 4.9 N 24 32 13 17 1020.0 1019.3 0.0
30/07:00am 18.0 13.8 9.6 58 4.5 N 22 26 12 14 1019.9 1019.2 0.0
30/06:30am 16.7 13.8 9.6 63 3.8 N 15 20 8 11 1019.6 1018.9 0.0
30/06:00am 15.7 12.3 9.1 65 3.4 N 17 20 9 11 1019.2 1018.4 0.0
30/05:30am 15.0 12.0 9.4 69 2.9 N 15 17 8 9 1018.8 1018.0 0.0
30/05:00am 13.7 10.8 8.3 70 2.7 N 13 15 7 8 1018.5 1017.7 0.0
30/04:30am 13.8 10.9 8.2 69 2.8 N 13 15 7 8 1018.0 1017.2 0.0
30/04:00am 13.6 10.7 8.0 69 2.8 N 13 13 7 7 1017.8 1017.0 0.0
30/03:30am 14.2 11.6 7.9 66 3.2 N 11 13 6 7 1017.7 1016.9 0.0
30/03:00am 14.2 11.6 7.7 65 3.3 N 11 13 6 7 1017.6 1016.8 0.0
30/02:30am 14.4 11.8 7.9 65 3.3 N 11 13 6 7 1017.9 1017.1 0.0
30/02:00am 14.7 12.1 7.7 63 3.5 N 11 13 6 7 1017.9 1017.1 0.0
30/01:30am 15.5 12.5 7.5 59 4.0 N 13 13 7 7 1018.0 1017.2 0.0
30/01:00am 16.4 13.4 7.6 56 4.5 NNE 13 15 7 8 1018.3 1017.5 0.0
30/12:30am 16.6 13.9 7.5 55 4.6 NNE 11 13 6 7 1018.5 1017.7 0.0
30/12:00am 17.3 14.7 7.6 53 5.0 N 11 13 6 7 1018.5 1017.7 0.0
 
Date/Time
EST
Temp
°C
App
Temp
°C
Dew
Point
Rel
Hum
%
Delta-T
°C
Wind Press
QNH
hPa
Press
MSL
hPa
Rain
since 9 am
mm
Dir
 
Spd
km/h
Gust
km/h
Spd
kts
Gust
kts
29/11:30pm 17.6 14.9 7.4 51 5.2 NNE 11 13 6 7 1018.6 1017.8 0.0
29/11:00pm 19.4 16.4 7.5 46 6.1 NNE 13 17 7 9 1018.6 1017.8 0.0
29/10:30pm 19.2 16.2 7.6 47 6.0 NNE 13 17 7 9 1018.5 1017.7 0.0
29/10:00pm 19.3 15.8 7.4 46 6.1 N 15 17 8 9 1018.5 1017.7 0.0
29/09:30pm 19.9 16.4 7.3 44 6.5 N 15 17 8 9 1018.4 1017.6 0.0
29/09:00pm 21.3 18.0 8.2 43 6.9 N 15 22 8 12 1018.1 1017.3 0.0
29/08:30pm 20.2 16.9 6.5 41 7.0 NNE 13 15 7 8 1018.0 1017.2 0.0
29/08:00pm 20.3 17.3 5.9 39 7.3 NE 11 15 6 8 1017.7 1016.9 0.0
29/07:30pm 20.2 17.4 5.1 37 7.5 NNE 9 13 5 7 1017.3 1016.5 0.0
29/07:00pm 22.1 19.6 3.7 30 9.0 ESE 6 7 3 4 1016.9 1016.2 0.0
29/06:30pm 23.6 20.9 3.5 27 9.9 ENE 7 9 4 5 1016.5 1015.7 0.0
29/06:00pm 26.1 23.0 3.4 23 11.4 NE 9 11 5 6 1016.1 1015.3 0.0
29/05:30pm 28.6 25.3 2.7 19 13.0 NE 9 11 5 6 1015.9 1015.1 0.0
29/05:00pm 29.4 26.5 2.6 18 13.5 N 7 13 4 7 1015.7 1014.9 0.0
29/04:30pm 29.7 26.1 2.9 18 13.6 SE 11 17 6 9 1015.6 1014.8 0.0
29/04:00pm 29.9 26.7 3.0 18 13.7 S 9 17 5 9 1015.6 1014.8 0.0
29/03:30pm 29.7 25.7 2.9 18 13.6 SE 13 20 7 11 1015.7 1014.9 0.0
29/03:00pm 29.8 26.2 2.9 18 13.7 E 11 20 6 11 1015.9 1015.1 0.0
29/02:30pm 30.2 27.7 4.8 20 13.4 NE 7 15 4 8 1016.1 1015.3 0.0
29/02:00pm 30.3 27.8 4.9 20 13.4 S 7 11 4 6 1016.5 1015.7 0.0
29/01:30pm 29.6 25.9 4.3 20 13.2 S 13 30 7 16 1016.9 1016.2 0.0
29/01:00pm 29.4 26.1 4.8 21 12.9 ESE 11 17 6 9 1017.3 1016.5 0.0
29/12:30pm 28.9 26.5 6.9 25 11.9 N 9 19 5 10 1017.7 1016.9 0.0
29/12:00pm 28.2 25.1 9.0 30 10.7 NNE 15 26 8 14 1018.2 1017.4 0.0
29/11:30am 27.6 24.3 9.4 32 10.2 NNE 17 32 9 17 1018.8 1018.0 0.0
29/11:00am 27.1 24.8 11.6 38 9.0 NNE 15 22 8 12 1019.3 1018.5 0.0
29/10:30am 24.9 22.2 11.8 44 7.5 NNE 17 24 9 13 1019.8 1019.1 0.0
29/10:00am 24.1 21.6 12.4 48 6.8 NNE 17 24 9 13 1020.2 1019.5 0.0
29/09:30am 22.7 20.3 12.6 53 5.8 NNE 17 26 9 14 1020.3 1019.6 0.0
29/09:00am 21.5 18.1 12.6 57 5.1 N 22 32 12 17 1020.2 1019.5 0.0
29/08:30am 20.4 16.8 13.1 63 4.2 N 24 32 13 17 1020.2 1019.5 0.0
29/08:00am 19.5 15.5 13.0 66 3.7 N 26 32 14 17 1020.1 1019.4 0.0
29/07:30am 18.3 14.2 12.7 70 3.2 NNE 26 35 14 19 1019.7 1019.0 0.0
29/07:00am 16.8 13.0 12.3 75 2.5 NNE 24 33 13 18 1019.5 1018.8 0.0
29/06:30am 15.6 12.7 12.2 80 1.9 N 19 24 10 13 1019.3 1018.5 0.0
29/06:00am 14.7 11.7 11.8 83 1.6 NNE 19 22 10 12 1018.9 1018.1 0.0
29/05:30am 14.6 11.5 11.6 82 1.6 N 19 24 10 13 1018.7 1017.9 0.0
29/05:00am 15.1 12.1 11.9 81 1.8 N 19 24 10 13 1018.2 1017.4 0.0
29/04:30am 14.4 11.2 10.0 75 2.3 N 17 20 9 11 1018.0 1017.2 0.0
29/04:00am 14.2 11.2 7.9 66 3.2 NNE 13 17 7 9 1018.0 1017.2 0.0
29/03:30am 12.7 9.8 6.7 67 2.9 NNE 11 13 6 7 1017.8 1017.0 0.0
29/03:00am 12.2 8.7 5.4 63 3.2 N 13 13 7 7 1017.9 1017.1 0.0
29/02:30am 12.8 9.6 5.0 59 3.7 N 11 13 6 7 1018.0 1017.2 0.0
29/02:00am 13.2 10.1 5.4 59 3.7 N 11 13 6 7 1018.0 1017.2 0.0
29/01:30am 13.6 9.7 5.5 58 3.9 N 15 15 8 8 1018.1 1017.3 0.0
29/01:00am 13.5 10.0 5.4 58 3.9 N 13 17 7 9 1018.2 1017.4 0.0
29/12:30am 13.7 9.8 5.3 57 4.0 N 15 15 8 8 1018.4 1017.6 0.0
29/12:00am 12.5 8.9 5.0 60 3.5 N 13 15 7 8 1018.8 1018.0 0.0
 
Date/Time
EST
Temp
°C
App
Temp
°C
Dew
Point
Rel
Hum
%
Delta-T
°C
Wind Press
QNH
hPa
Press
MSL
hPa
Rain
since 9 am
mm
Dir
 
Spd
km/h
Gust
km/h
Spd
kts
Gust
kts
28/11:30pm 13.6 10.7 4.5 54 4.3 NNE 9 11 5 6 1018.8 1018.0 0.0
28/11:00pm 14.3 12.5 3.7 49 4.9 N 2 6 1 3 1019.1 1018.3 0.0
28/10:30pm 13.6 12.3 3.9 52 4.5 CALM 0 0 0 0 1019.1 1018.3 0.0
28/10:00pm 13.9 12.2 3.9 51 4.6 E 2 6 1 3 1019.0 1018.2 0.0

Other Formats:

Comma delimited format used in spreadsheet applications
http://www.bom.gov.au/fwo/IDQ60801/IDQ60801.94515.axf

JavaScript Object Notation format (JSON) in row-major order
http://www.bom.gov.au/fwo/IDQ60801/IDQ60801.94515.json